WetterOnline ( https://www.wetteronline.de )

Wetter aktuell Weiden

Aktuelles Wetter: Weiden (439m)

6-stündlich | Neueste Meldungen
Ortszeit Temperatur Wetter
Fr, 19.08. 14:00 20.6° C bedeckt
Fr, 19.08. 8:00 18.4° C bedeckt
Fr, 19.08. 2:00 18.3° C bedeckt
Do, 18.08. 20:00 24.8° C bedeckt
Do, 18.08. 14:00 27.1° C leicht bewölkt
Do, 18.08. 8:00 20.4° C bewölkt
Do, 18.08. 2:00 20.7° C bedeckt
Mi, 17.08. 20:00 28.0° C wolkig
Ortszeit Temperatur Wetter
Fr, 19.08. 19:00 18.3° C starker Regen
Fr, 19.08. 18:50 18.3° C starker Regen
Fr, 19.08. 18:40 18.5° C Regen
Fr, 19.08. 18:30 18.9° C leichter Regen
Fr, 19.08. 18:20 18.9° C leichter Regen
Fr, 19.08. 18:10 19.0° C leichter Regen
Fr, 19.08. 18:00 20.0° C leichter Regen
Fr, 19.08. 17:30 20.5° C bedeckt
Fr, 19.08. 17:00 21.0° C bewölkt
Fr, 19.08. 16:30 21.9° C wolkig
Fr, 19.08. 16:00 21.0° C bedeckt
Ortszeit Relative Feuchte Sichtweite
Fr, 19.08. 14:00 78% 30 km
Fr, 19.08. 8:00 92% 8 km
Fr, 19.08. 2:00 92% 10 km
Do, 18.08. 20:00 54% 40 km
Do, 18.08. 14:00 43% 40 km
Do, 18.08. 8:00 59% 45 km
Do, 18.08. 2:00 52% 50 km
Mi, 17.08. 20:00 31% 50 km
Ortszeit Relative Feuchte Sichtweite
Fr, 19.08. 19:00 89% 1.9 km
Fr, 19.08. 18:50 89% -
Fr, 19.08. 18:40 88% -
Fr, 19.08. 18:30 85% 16 km
Fr, 19.08. 18:20 85% -
Fr, 19.08. 18:10 84% -
Fr, 19.08. 18:00 78% 17 km
Fr, 19.08. 17:30 76% 45 km
Fr, 19.08. 17:00 74% 30 km
Fr, 19.08. 16:30 71% 35 km
Fr, 19.08. 16:00 76% 40 km
Ortszeit Niederschlagsmenge Niederschlagsart
Fr, 19.08. 14:00 0.1 l/m2 in 6 Std. Regen
Fr, 19.08. 8:00 4 l/m2 in 12 Std. Regen
Fr, 19.08. 2:00 4 l/m2 in 6 Std. Regen
Do, 18.08. 20:00 0.0 l/m2 in 12 Std. -
Do, 18.08. 14:00 0.0 l/m2 in 6 Std. -
Do, 18.08. 8:00 0.0 l/m2 in 12 Std. -
Do, 18.08. 2:00 0.0 l/m2 in 6 Std. -
Mi, 17.08. 20:00 0.0 l/m2 in 12 Std. -
Ortszeit Niederschlagsmenge Niederschlagsart
Fr, 19.08. 19:00 5.2 l/m2 in 1 Std. Regen
Fr, 19.08. 18:50 keine Meldung -
Fr, 19.08. 18:40 keine Meldung -
Fr, 19.08. 18:30 0.8 l/m2 in 1 Std. -
Fr, 19.08. 18:20 keine Meldung -
Fr, 19.08. 18:10 keine Meldung -
Fr, 19.08. 18:00 0.1 l/m2 in 1 Std. Regen
Fr, 19.08. 17:30 0.0 l/m2 in 1 Std. -
Fr, 19.08. 17:00 0.0 l/m2 in 1 Std. Regen
Fr, 19.08. 16:30 0.0 l/m2 in 1 Std. -
Fr, 19.08. 16:00 0.1 l/m2 in 1 Std. Regen
Ortszeit Stärke Spitze Richtung
km/h Bft. km/h Grad Sektor
Fr, 19.08. 14:00 13 3 20 360° N
Fr, 19.08. 8:00 4 1 14 210° SW
Fr, 19.08. 2:00 6 1 33 310° NW
Do, 18.08. 20:00 17 3 28 360° N
Do, 18.08. 14:00 11 2 18 320° NW
Do, 18.08. 8:00 4 1 36 230° SW
Do, 18.08. 2:00 2 1 9 350° N
Mi, 17.08. 20:00 6 1 20 340° N
Ortszeit Stärke Spitze Richtung
km/h Bft. km/h Grad Sektor
Fr, 19.08. 19:00 9 2 26 360° N
Fr, 19.08. 18:50 9 2 - 360° N
Fr, 19.08. 18:40 11 2 - 350° N
Fr, 19.08. 18:30 13 3 26 350° N
Fr, 19.08. 18:20 13 3 - 350° N
Fr, 19.08. 18:10 14 3 - 360° N
Fr, 19.08. 18:00 14 3 29 350° N
Fr, 19.08. 17:30 14 3 29 360° N
Fr, 19.08. 17:00 14 3 29 360° N
Fr, 19.08. 16:30 14 3 29 350° N
Fr, 19.08. 16:00 13 3 26 360° N
Ortszeit Untergrenze Bedeckung Gattung
total tief tief mittel hoch
Fr, 19.08. 14:00 780 m 8/8 8/8 - - -
Fr, 19.08. 8:00 180 m 8/8 8/8 - - -
Fr, 19.08. 2:00 360 m 8/8 8/8 - - -
Do, 18.08. 20:00 3600 m 8/8 8/8 - - -
Do, 18.08. 14:00 10500 m 5/8 0/8 - - -
Do, 18.08. 8:00 2400 m 8/8 5/8 - - -
Do, 18.08. 2:00 4800 m 8/8 8/8 - - -
Mi, 17.08. 20:00 3300 m 7/8 2/8 - - -
Ortszeit Bedeckungsgrad in Achtel und Wolkenuntergrenze
Fr, 19.08. 19:00 5(<30m) 7(450m)
Fr, 19.08. 18:50 5(<30m) 7(450m)
Fr, 19.08. 18:40 7
Fr, 19.08. 18:30 6(480m) 7(2400m)
Fr, 19.08. 18:20 6(480m) 7(2400m)
Fr, 19.08. 18:10 8
Fr, 19.08. 18:00 3(480m) 7(2100m) 8(2400m)
Fr, 19.08. 17:30 6(510m) 7(1500m) 8(2700m)
Fr, 19.08. 17:00 5(510m) 7(1800m) 8(4200m)
Fr, 19.08. 16:30 4(690m) 6(3000m) 7(7200m)
Fr, 19.08. 16:00 7(510m) 8(720m)
Ortszeit Luftdruck NN (hPa) Tendenz (hPa in 3 Std.)
Fr, 19.08. 14:00 1011 + 0,4
Fr, 19.08. 8:00 1011 + 0,8
Fr, 19.08. 2:00 1010 0,0
Do, 18.08. 20:00 1006 - 1,3
Do, 18.08. 14:00 1009 - 1,2
Do, 18.08. 8:00 1011 0,0
Do, 18.08. 2:00 1010 - 0,3
Mi, 17.08. 20:00 1009 - 0,2
Ortszeit Luftdruck NN (hPa) Tendenz (hPa in 3 Std.)
Fr, 19.08. 19:00 1012 + 0,3
Fr, 19.08. 18:50 1012 keine Meldung
Fr, 19.08. 18:40 1012 keine Meldung
Fr, 19.08. 18:30 1011 + 0,1
Fr, 19.08. 18:20 1011 keine Meldung
Fr, 19.08. 18:10 1011 keine Meldung
Fr, 19.08. 18:00 1011 + 0,1
Fr, 19.08. 17:30 1011 - 0,1
Fr, 19.08. 17:00 1011 - 0,5
Fr, 19.08. 16:30 1011 - 0,4
Fr, 19.08. 16:00 1011 - 0,3
Ortszeit Schneehöhe (cm)
Fr, 19.08. 14:00 0
Fr, 19.08. 8:00 0
Fr, 19.08. 2:00 0
Do, 18.08. 20:00 0
Do, 18.08. 14:00 0
Do, 18.08. 8:00 0
Do, 18.08. 2:00 0
Mi, 17.08. 20:00 0
Ortszeit Schneehöhe (cm)
Fr, 19.08. 19:00 0
Fr, 19.08. 18:50 0
Fr, 19.08. 18:40 0
Fr, 19.08. 18:30 0
Fr, 19.08. 18:20 0
Fr, 19.08. 18:10 0
Fr, 19.08. 18:00 0
Fr, 19.08. 17:30 0
Fr, 19.08. 17:00 0
Fr, 19.08. 16:30 0
Fr, 19.08. 16:00 0
Link zu dieser Seite / Seite empfehlen

Das Wetter in ...